sensor_id;sensor_type;location;lat;lon;timestamp;P1;durP1;ratioP1;P2;durP2;ratioP2
10651;SDS011;5374;42.742;23.266;2022-09-01T00:01:34;18.10;;;13.43;;
10651;SDS011;5374;42.742;23.266;2022-09-01T00:04:24;14.30;;;12.80;;
10651;SDS011;5374;42.742;23.266;2022-09-01T00:07:11;14.57;;;13.17;;
10651;SDS011;5374;42.742;23.266;2022-09-01T00:10:03;16.07;;;13.83;;
10651;SDS011;5374;42.742;23.266;2022-09-01T00:12:52;16.17;;;13.13;;
10651;SDS011;5374;42.742;23.266;2022-09-01T00:15:39;14.87;;;13.37;;
10651;SDS011;5374;42.742;23.266;2022-09-01T00:18:26;13.93;;;12.43;;
10651;SDS011;5374;42.742;23.266;2022-09-01T00:21:13;15.37;;;12.87;;
10651;SDS011;5374;42.742;23.266;2022-09-01T00:24:02;15.50;;;13.43;;
10651;SDS011;5374;42.742;23.266;2022-09-01T00:26:51;15.10;;;13.40;;
10651;SDS011;5374;42.742;23.266;2022-09-01T00:29:38;14.90;;;13.40;;
10651;SDS011;5374;42.742;23.266;2022-09-01T00:32:26;14.27;;;12.90;;
10651;SDS011;5374;42.742;23.266;2022-09-01T00:35:13;14.63;;;13.13;;
10651;SDS011;5374;42.742;23.266;2022-09-01T00:38:01;18.00;;;13.30;;
10651;SDS011;5374;42.742;23.266;2022-09-01T00:40:48;17.83;;;12.53;;
10651;SDS011;5374;42.742;23.266;2022-09-01T00:43:38;14.23;;;12.73;;
10651;SDS011;5374;42.742;23.266;2022-09-01T00:46:30;14.07;;;12.67;;
10651;SDS011;5374;42.742;23.266;2022-09-01T00:49:20;14.90;;;13.37;;
10651;SDS011;5374;42.742;23.266;2022-09-01T00:52:13;14.13;;;12.73;;
10651;SDS011;5374;42.742;23.266;2022-09-01T00:55:03;14.60;;;13.10;;
10651;SDS011;5374;42.742;23.266;2022-09-01T00:57:55;16.43;;;13.23;;
10651;SDS011;5374;42.742;23.266;2022-09-01T01:00:46;15.30;;;12.77;;
10651;SDS011;5374;42.742;23.266;2022-09-01T01:03:36;14.77;;;13.27;;
10651;SDS011;5374;42.742;23.266;2022-09-01T01:06:29;16.23;;;14.00;;
10651;SDS011;5374;42.742;23.266;2022-09-01T01:09:18;15.23;;;13.47;;
10651;SDS011;5374;42.742;23.266;2022-09-01T01:12:07;14.77;;;13.37;;
10651;SDS011;5374;42.742;23.266;2022-09-01T01:14:56;16.53;;;14.60;;
10651;SDS011;5374;42.742;23.266;2022-09-01T01:17:44;16.50;;;14.43;;
10651;SDS011;5374;42.742;23.266;2022-09-01T01:20:31;16.40;;;14.67;;
10651;SDS011;5374;42.742;23.266;2022-09-01T01:23:39;15.67;;;14.07;;
10651;SDS011;5374;42.742;23.266;2022-09-01T01:26:34;15.67;;;14.00;;
10651;SDS011;5374;42.742;23.266;2022-09-01T01:29:22;15.50;;;14.00;;
10651;SDS011;5374;42.742;23.266;2022-09-01T01:32:10;15.60;;;14.00;;
10651;SDS011;5374;42.742;23.266;2022-09-01T01:34:57;15.13;;;13.53;;
10651;SDS011;5374;42.742;23.266;2022-09-01T01:37:50;15.90;;;14.27;;
10651;SDS011;5374;42.742;23.266;2022-09-01T01:40:39;14.90;;;13.30;;
10651;SDS011;5374;42.742;23.266;2022-09-01T01:43:28;16.23;;;14.43;;
10651;SDS011;5374;42.742;23.266;2022-09-01T01:46:15;16.40;;;14.23;;
10651;SDS011;5374;42.742;23.266;2022-09-01T01:49:03;15.50;;;13.93;;
10651;SDS011;5374;42.742;23.266;2022-09-01T01:51:51;18.07;;;14.10;;
10651;SDS011;5374;42.742;23.266;2022-09-01T01:54:43;16.80;;;14.03;;
10651;SDS011;5374;42.742;23.266;2022-09-01T01:57:30;15.40;;;13.73;;
10651;SDS011;5374;42.742;23.266;2022-09-01T02:00:22;17.10;;;14.13;;
10651;SDS011;5374;42.742;23.266;2022-09-01T02:03:12;17.83;;;14.30;;
10651;SDS011;5374;42.742;23.266;2022-09-01T02:06:01;19.57;;;15.27;;
10651;SDS011;5374;42.742;23.266;2022-09-01T02:08:51;18.93;;;15.33;;
10651;SDS011;5374;42.742;23.266;2022-09-01T02:11:42;18.73;;;15.37;;
10651;SDS011;5374;42.742;23.266;2022-09-01T02:14:29;21.33;;;16.27;;
10651;SDS011;5374;42.742;23.266;2022-09-01T02:17:18;22.63;;;16.77;;
10651;SDS011;5374;42.742;23.266;2022-09-01T02:20:05;22.07;;;18.60;;
10651;SDS011;5374;42.742;23.266;2022-09-01T02:22:53;20.87;;;17.70;;
10651;SDS011;5374;42.742;23.266;2022-09-01T02:25:42;23.10;;;18.80;;
10651;SDS011;5374;42.742;23.266;2022-09-01T02:28:30;20.87;;;17.87;;
10651;SDS011;5374;42.742;23.266;2022-09-01T02:31:21;21.63;;;18.20;;
10651;SDS011;5374;42.742;23.266;2022-09-01T02:34:10;21.87;;;17.43;;
10651;SDS011;5374;42.742;23.266;2022-09-01T02:36:59;20.83;;;17.87;;
10651;SDS011;5374;42.742;23.266;2022-09-01T02:39:46;20.77;;;18.57;;
10651;SDS011;5374;42.742;23.266;2022-09-01T02:42:33;20.50;;;18.30;;
10651;SDS011;5374;42.742;23.266;2022-09-01T02:45:20;24.60;;;19.53;;
10651;SDS011;5374;42.742;23.266;2022-09-01T02:48:08;23.57;;;17.77;;
10651;SDS011;5374;42.742;23.266;2022-09-01T02:50:57;22.30;;;19.37;;
10651;SDS011;5374;42.742;23.266;2022-09-01T02:53:46;22.57;;;18.80;;
10651;SDS011;5374;42.742;23.266;2022-09-01T02:56:36;21.63;;;18.10;;
10651;SDS011;5374;42.742;23.266;2022-09-01T02:59:24;26.73;;;19.83;;
10651;SDS011;5374;42.742;23.266;2022-09-01T03:02:13;24.93;;;20.57;;
10651;SDS011;5374;42.742;23.266;2022-09-01T03:05:00;26.77;;;20.10;;
10651;SDS011;5374;42.742;23.266;2022-09-01T03:07:48;25.10;;;20.50;;
10651;SDS011;5374;42.742;23.266;2022-09-01T03:10:39;27.57;;;19.63;;
10651;SDS011;5374;42.742;23.266;2022-09-01T03:13:27;27.83;;;20.70;;
10651;SDS011;5374;42.742;23.266;2022-09-01T03:16:15;37.63;;;22.93;;
10651;SDS011;5374;42.742;23.266;2022-09-01T03:19:03;32.80;;;22.23;;
10651;SDS011;5374;42.742;23.266;2022-09-01T03:21:53;31.43;;;23.73;;
10651;SDS011;5374;42.742;23.266;2022-09-01T03:24:45;32.80;;;21.27;;
10651;SDS011;5374;42.742;23.266;2022-09-01T03:27:32;28.73;;;20.93;;
10651;SDS011;5374;42.742;23.266;2022-09-01T03:30:20;26.50;;;21.27;;
10651;SDS011;5374;42.742;23.266;2022-09-01T03:33:08;26.77;;;22.63;;
10651;SDS011;5374;42.742;23.266;2022-09-01T03:35:55;29.50;;;21.80;;
10651;SDS011;5374;42.742;23.266;2022-09-01T03:38:42;31.57;;;22.27;;
10651;SDS011;5374;42.742;23.266;2022-09-01T03:41:34;30.57;;;22.20;;
10651;SDS011;5374;42.742;23.266;2022-09-01T03:44:22;29.90;;;21.90;;
10651;SDS011;5374;42.742;23.266;2022-09-01T03:47:09;28.10;;;21.50;;
10651;SDS011;5374;42.742;23.266;2022-09-01T03:49:59;28.27;;;21.03;;
10651;SDS011;5374;42.742;23.266;2022-09-01T03:52:46;31.73;;;22.20;;
10651;SDS011;5374;42.742;23.266;2022-09-01T03:55:35;31.40;;;20.77;;
10651;SDS011;5374;42.742;23.266;2022-09-01T03:58:25;27.03;;;21.13;;
10651;SDS011;5374;42.742;23.266;2022-09-01T04:01:13;23.57;;;20.70;;
10651;SDS011;5374;42.742;23.266;2022-09-01T04:04:01;24.43;;;19.83;;
10651;SDS011;5374;42.742;23.266;2022-09-01T04:06:52;27.80;;;20.60;;
10651;SDS011;5374;42.742;23.266;2022-09-01T04:09:39;24.27;;;20.13;;
10651;SDS011;5374;42.742;23.266;2022-09-01T04:12:28;29.00;;;20.00;;
10651;SDS011;5374;42.742;23.266;2022-09-01T04:15:17;27.27;;;19.03;;
10651;SDS011;5374;42.742;23.266;2022-09-01T04:18:05;25.73;;;19.23;;
10651;SDS011;5374;42.742;23.266;2022-09-01T04:20:55;34.87;;;19.50;;
10651;SDS011;5374;42.742;23.266;2022-09-01T04:23:43;25.03;;;20.37;;
10651;SDS011;5374;42.742;23.266;2022-09-01T04:26:31;27.00;;;19.90;;
10651;SDS011;5374;42.742;23.266;2022-09-01T04:29:19;25.33;;;19.23;;
10651;SDS011;5374;42.742;23.266;2022-09-01T04:32:12;24.97;;;19.13;;
10651;SDS011;5374;42.742;23.266;2022-09-01T04:35:00;33.07;;;20.30;;
10651;SDS011;5374;42.742;23.266;2022-09-01T04:37:47;24.53;;;18.97;;
10651;SDS011;5374;42.742;23.266;2022-09-01T04:40:36;23.60;;;19.13;;
10651;SDS011;5374;42.742;23.266;2022-09-01T04:43:23;21.83;;;19.03;;
10651;SDS011;5374;42.742;23.266;2022-09-01T04:46:10;22.07;;;18.13;;
10651;SDS011;5374;42.742;23.266;2022-09-01T04:49:00;29.97;;;18.00;;
10651;SDS011;5374;42.742;23.266;2022-09-01T04:51:51;22.83;;;19.23;;
10651;SDS011;5374;42.742;23.266;2022-09-01T04:54:38;24.93;;;19.33;;
10651;SDS011;5374;42.742;23.266;2022-09-01T04:57:25;27.73;;;18.47;;
10651;SDS011;5374;42.742;23.266;2022-09-01T05:00:14;23.17;;;18.53;;
10651;SDS011;5374;42.742;23.266;2022-09-01T05:03:07;23.67;;;19.17;;
10651;SDS011;5374;42.742;23.266;2022-09-01T05:05:56;20.53;;;17.17;;
10651;SDS011;5374;42.742;23.266;2022-09-01T05:08:48;21.93;;;18.30;;
10651;SDS011;5374;42.742;23.266;2022-09-01T05:11:36;20.43;;;18.17;;
10651;SDS011;5374;42.742;23.266;2022-09-01T05:14:24;20.50;;;17.67;;
10651;SDS011;5374;42.742;23.266;2022-09-01T05:17:11;19.60;;;17.00;;
10651;SDS011;5374;42.742;23.266;2022-09-01T05:19:59;21.80;;;17.90;;
10651;SDS011;5374;42.742;23.266;2022-09-01T05:22:47;21.30;;;17.87;;
10651;SDS011;5374;42.742;23.266;2022-09-01T05:25:36;22.20;;;17.53;;
10651;SDS011;5374;42.742;23.266;2022-09-01T05:28:25;22.13;;;17.67;;
10651;SDS011;5374;42.742;23.266;2022-09-01T05:31:12;19.37;;;17.27;;
10651;SDS011;5374;42.742;23.266;2022-09-01T05:34:03;20.83;;;17.83;;
10651;SDS011;5374;42.742;23.266;2022-09-01T05:36:54;22.73;;;18.10;;
10651;SDS011;5374;42.742;23.266;2022-09-01T05:39:45;21.30;;;17.70;;
10651;SDS011;5374;42.742;23.266;2022-09-01T05:42:32;18.73;;;16.73;;
10651;SDS011;5374;42.742;23.266;2022-09-01T05:45:19;20.40;;;17.17;;
10651;SDS011;5374;42.742;23.266;2022-09-01T05:48:07;20.00;;;17.90;;
10651;SDS011;5374;42.742;23.266;2022-09-01T05:50:55;19.87;;;17.77;;
10651;SDS011;5374;42.742;23.266;2022-09-01T05:53:44;22.93;;;19.53;;
10651;SDS011;5374;42.742;23.266;2022-09-01T05:56:33;23.30;;;19.40;;
10651;SDS011;5374;42.742;23.266;2022-09-01T05:59:23;23.23;;;19.73;;
10651;SDS011;5374;42.742;23.266;2022-09-01T06:02:10;23.93;;;20.60;;
10651;SDS011;5374;42.742;23.266;2022-09-01T06:04:58;22.43;;;20.03;;
10651;SDS011;5374;42.742;23.266;2022-09-01T06:07:45;26.73;;;20.83;;
10651;SDS011;5374;42.742;23.266;2022-09-01T06:10:32;24.87;;;21.00;;
10651;SDS011;5374;42.742;23.266;2022-09-01T06:13:25;22.17;;;19.90;;
10651;SDS011;5374;42.742;23.266;2022-09-01T06:16:12;22.13;;;19.83;;
10651;SDS011;5374;42.742;23.266;2022-09-01T06:19:01;24.30;;;20.60;;
10651;SDS011;5374;42.742;23.266;2022-09-01T06:21:49;23.47;;;20.93;;
10651;SDS011;5374;42.742;23.266;2022-09-01T06:24:38;26.03;;;22.57;;
10651;SDS011;5374;42.742;23.266;2022-09-01T06:27:26;24.57;;;21.87;;
10651;SDS011;5374;42.742;23.266;2022-09-01T06:30:15;24.83;;;22.03;;
10651;SDS011;5374;42.742;23.266;2022-09-01T06:33:05;27.73;;;22.60;;
10651;SDS011;5374;42.742;23.266;2022-09-01T06:35:53;24.70;;;21.53;;
10651;SDS011;5374;42.742;23.266;2022-09-01T06:38:40;26.13;;;22.40;;
10651;SDS011;5374;42.742;23.266;2022-09-01T06:41:28;25.10;;;22.40;;
10651;SDS011;5374;42.742;23.266;2022-09-01T06:44:15;26.73;;;22.07;;
10651;SDS011;5374;42.742;23.266;2022-09-01T06:47:08;24.53;;;21.93;;
10651;SDS011;5374;42.742;23.266;2022-09-01T06:49:55;26.63;;;23.20;;
10651;SDS011;5374;42.742;23.266;2022-09-01T06:52:43;25.50;;;22.90;;
10651;SDS011;5374;42.742;23.266;2022-09-01T06:55:30;26.57;;;23.50;;
10651;SDS011;5374;42.742;23.266;2022-09-01T06:58:18;26.57;;;23.77;;
10651;SDS011;5374;42.742;23.266;2022-09-01T07:01:06;26.77;;;23.43;;
10651;SDS011;5374;42.742;23.266;2022-09-01T07:04:00;27.97;;;24.97;;
10651;SDS011;5374;42.742;23.266;2022-09-01T07:06:48;26.17;;;23.37;;
10651;SDS011;5374;42.742;23.266;2022-09-01T07:09:37;27.63;;;24.70;;
10651;SDS011;5374;42.742;23.266;2022-09-01T07:12:24;27.33;;;24.00;;
10651;SDS011;5374;42.742;23.266;2022-09-01T07:15:11;25.10;;;22.70;;
10651;SDS011;5374;42.742;23.266;2022-09-01T07:18:01;24.53;;;22.20;;
10651;SDS011;5374;42.742;23.266;2022-09-01T07:20:50;23.67;;;21.27;;
10651;SDS011;5374;42.742;23.266;2022-09-01T07:23:39;23.90;;;21.50;;
10651;SDS011;5374;42.742;23.266;2022-09-01T07:26:28;23.80;;;21.53;;
10651;SDS011;5374;42.742;23.266;2022-09-01T07:29:15;23.47;;;21.07;;
10651;SDS011;5374;42.742;23.266;2022-09-01T07:32:07;23.87;;;20.73;;
10651;SDS011;5374;42.742;23.266;2022-09-01T07:34:54;21.63;;;19.37;;
10651;SDS011;5374;42.742;23.266;2022-09-01T07:37:42;22.10;;;19.90;;
10651;SDS011;5374;42.742;23.266;2022-09-01T07:40:30;22.23;;;20.03;;
10651;SDS011;5374;42.742;23.266;2022-09-01T07:43:17;22.10;;;19.90;;
10651;SDS011;5374;42.742;23.266;2022-09-01T07:46:07;23.13;;;21.03;;
10651;SDS011;5374;42.742;23.266;2022-09-01T07:48:55;22.50;;;20.37;;
10651;SDS011;5374;42.742;23.266;2022-09-01T07:51:42;21.97;;;19.87;;
10651;SDS011;5374;42.742;23.266;2022-09-01T07:54:31;22.73;;;20.40;;
10651;SDS011;5374;42.742;23.266;2022-09-01T07:57:21;22.50;;;20.17;;
10651;SDS011;5374;42.742;23.266;2022-09-01T08:00:09;21.60;;;18.10;;
10651;SDS011;5374;42.742;23.266;2022-09-01T08:02:58;23.10;;;18.37;;
10651;SDS011;5374;42.742;23.266;2022-09-01T08:05:45;21.47;;;18.53;;
10651;SDS011;5374;42.742;23.266;2022-09-01T08:08:36;20.50;;;18.43;;
10651;SDS011;5374;42.742;23.266;2022-09-01T08:11:26;21.07;;;18.83;;
10651;SDS011;5374;42.742;23.266;2022-09-01T08:14:14;20.10;;;18.10;;
10651;SDS011;5374;42.742;23.266;2022-09-01T08:17:02;18.70;;;17.00;;
10651;SDS011;5374;42.742;23.266;2022-09-01T08:19:49;19.60;;;17.67;;
10651;SDS011;5374;42.742;23.266;2022-09-01T08:22:37;17.80;;;15.93;;
10651;SDS011;5374;42.742;23.266;2022-09-01T08:25:25;17.17;;;15.47;;
10651;SDS011;5374;42.742;23.266;2022-09-01T08:28:13;17.00;;;15.23;;
10651;SDS011;5374;42.742;23.266;2022-09-01T08:31:04;17.97;;;16.13;;
10651;SDS011;5374;42.742;23.266;2022-09-01T08:33:52;17.23;;;15.50;;
10651;SDS011;5374;42.742;23.266;2022-09-01T08:36:39;16.83;;;15.20;;
10651;SDS011;5374;42.742;23.266;2022-09-01T08:39:27;17.20;;;15.13;;
10651;SDS011;5374;42.742;23.266;2022-09-01T08:42:15;16.13;;;14.53;;
10651;SDS011;5374;42.742;23.266;2022-09-01T08:45:12;16.53;;;14.03;;
10651;SDS011;5374;42.742;23.266;2022-09-01T08:48:07;15.33;;;13.80;;
10651;SDS011;5374;42.742;23.266;2022-09-01T08:51:02;16.57;;;14.97;;
10651;SDS011;5374;42.742;23.266;2022-09-01T08:53:58;15.57;;;14.00;;
10651;SDS011;5374;42.742;23.266;2022-09-01T08:56:50;15.17;;;13.47;;
10651;SDS011;5374;42.742;23.266;2022-09-01T08:59:39;14.10;;;12.60;;
10651;SDS011;5374;42.742;23.266;2022-09-01T09:02:32;15.00;;;11.70;;
10651;SDS011;5374;42.742;23.266;2022-09-01T09:05:30;15.27;;;10.93;;
10651;SDS011;5374;42.742;23.266;2022-09-01T09:08:28;11.43;;;9.90;;
10651;SDS011;5374;42.742;23.266;2022-09-01T09:15:01;10.33;;;9.30;;
10651;SDS011;5374;42.742;23.266;2022-09-01T09:17:58;13.33;;;11.07;;
10651;SDS011;5374;42.742;23.266;2022-09-01T09:20:53;10.50;;;9.50;;
10651;SDS011;5374;42.742;23.266;2022-09-01T09:23:42;11.27;;;9.80;;
10651;SDS011;5374;42.742;23.266;2022-09-01T09:26:32;13.80;;;9.70;;
10651;SDS011;5374;42.742;23.266;2022-09-01T09:29:19;13.43;;;9.37;;
10651;SDS011;5374;42.742;23.266;2022-09-01T09:32:07;10.60;;;9.50;;
10651;SDS011;5374;42.742;23.266;2022-09-01T09:34:56;10.20;;;9.20;;
10651;SDS011;5374;42.742;23.266;2022-09-01T09:38:14;14.47;;;8.80;;
10651;SDS011;5374;42.742;23.266;2022-09-01T09:41:07;11.07;;;8.83;;
10651;SDS011;5374;42.742;23.266;2022-09-01T09:44:02;11.17;;;9.60;;
10651;SDS011;5374;42.742;23.266;2022-09-01T09:46:52;11.63;;;9.97;;
10651;SDS011;5374;42.742;23.266;2022-09-01T09:49:39;11.83;;;10.07;;
10651;SDS011;5374;42.742;23.266;2022-09-01T09:52:27;14.73;;;9.70;;
10651;SDS011;5374;42.742;23.266;2022-09-01T09:55:22;13.17;;;10.30;;
10651;SDS011;5374;42.742;23.266;2022-09-01T09:58:11;13.87;;;10.50;;
10651;SDS011;5374;42.742;23.266;2022-09-01T10:01:00;11.07;;;9.90;;
10651;SDS011;5374;42.742;23.266;2022-09-01T10:03:54;14.27;;;10.17;;
10651;SDS011;5374;42.742;23.266;2022-09-01T10:06:43;10.73;;;9.80;;
10651;SDS011;5374;42.742;23.266;2022-09-01T10:09:36;10.97;;;9.90;;
10651;SDS011;5374;42.742;23.266;2022-09-01T10:12:23;13.07;;;10.13;;
10651;SDS011;5374;42.742;23.266;2022-09-01T10:15:12;12.73;;;10.43;;
10651;SDS011;5374;42.742;23.266;2022-09-01T10:18:05;13.50;;;10.60;;
10651;SDS011;5374;42.742;23.266;2022-09-01T10:20:56;13.03;;;9.60;;
10651;SDS011;5374;42.742;23.266;2022-09-01T10:23:46;10.63;;;9.53;;
10651;SDS011;5374;42.742;23.266;2022-09-01T10:26:36;10.73;;;9.70;;
10651;SDS011;5374;42.742;23.266;2022-09-01T10:29:25;10.30;;;9.27;;
10651;SDS011;5374;42.742;23.266;2022-09-01T10:32:19;10.33;;;9.27;;
10651;SDS011;5374;42.742;23.266;2022-09-01T10:35:11;10.10;;;9.07;;
10651;SDS011;5374;42.742;23.266;2022-09-01T10:38:05;10.43;;;9.33;;
10651;SDS011;5374;42.742;23.266;2022-09-01T10:40:54;9.50;;;8.47;;
10651;SDS011;5374;42.742;23.266;2022-09-01T10:43:54;10.53;;;9.43;;
10651;SDS011;5374;42.742;23.266;2022-09-01T10:46:55;13.33;;;9.60;;
10651;SDS011;5374;42.742;23.266;2022-09-01T10:55:58;9.20;;;8.30;;
10651;SDS011;5374;42.742;23.266;2022-09-01T10:58:56;9.27;;;8.13;;
10651;SDS011;5374;42.742;23.266;2022-09-01T11:02:02;11.70;;;8.57;;
10651;SDS011;5374;42.742;23.266;2022-09-01T11:05:10;11.70;;;8.50;;
10651;SDS011;5374;42.742;23.266;2022-09-01T11:11:08;8.63;;;7.80;;
10651;SDS011;5374;42.742;23.266;2022-09-01T11:14:03;12.57;;;7.83;;
10651;SDS011;5374;42.742;23.266;2022-09-01T11:17:11;10.33;;;8.10;;
10651;SDS011;5374;42.742;23.266;2022-09-01T11:20:03;11.63;;;8.47;;
10651;SDS011;5374;42.742;23.266;2022-09-01T11:22:58;8.67;;;7.80;;
10651;SDS011;5374;42.742;23.266;2022-09-01T11:25:48;13.27;;;8.37;;
10651;SDS011;5374;42.742;23.266;2022-09-01T11:28:38;12.63;;;9.10;;
10651;SDS011;5374;42.742;23.266;2022-09-01T11:31:29;8.53;;;7.67;;
10651;SDS011;5374;42.742;23.266;2022-09-01T11:34:23;10.53;;;7.90;;
10651;SDS011;5374;42.742;23.266;2022-09-01T11:37:14;10.17;;;7.27;;
10651;SDS011;5374;42.742;23.266;2022-09-01T11:40:03;10.97;;;7.20;;
10651;SDS011;5374;42.742;23.266;2022-09-01T11:42:53;8.60;;;7.13;;
10651;SDS011;5374;42.742;23.266;2022-09-01T11:45:43;8.50;;;7.60;;
10651;SDS011;5374;42.742;23.266;2022-09-01T11:48:45;8.10;;;7.30;;
10651;SDS011;5374;42.742;23.266;2022-09-01T11:51:38;9.07;;;6.53;;
10651;SDS011;5374;42.742;23.266;2022-09-01T11:54:36;10.43;;;7.47;;
10651;SDS011;5374;42.742;23.266;2022-09-01T11:57:27;7.97;;;7.20;;
10651;SDS011;5374;42.742;23.266;2022-09-01T12:00:16;9.57;;;7.80;;
10651;SDS011;5374;42.742;23.266;2022-09-01T12:03:18;10.00;;;7.80;;
10651;SDS011;5374;42.742;23.266;2022-09-01T12:06:09;9.40;;;8.00;;
10651;SDS011;5374;42.742;23.266;2022-09-01T12:08:59;8.73;;;7.90;;
10651;SDS011;5374;42.742;23.266;2022-09-01T12:11:48;11.80;;;7.77;;
10651;SDS011;5374;42.742;23.266;2022-09-01T12:14:37;9.93;;;7.67;;
10651;SDS011;5374;42.742;23.266;2022-09-01T12:17:24;12.87;;;8.17;;
10651;SDS011;5374;42.742;23.266;2022-09-01T12:20:18;8.67;;;7.77;;
10651;SDS011;5374;42.742;23.266;2022-09-01T12:23:24;10.67;;;9.60;;
10651;SDS011;5374;42.742;23.266;2022-09-01T12:26:14;11.77;;;8.97;;
10651;SDS011;5374;42.742;23.266;2022-09-01T12:29:03;10.57;;;8.83;;
10651;SDS011;5374;42.742;23.266;2022-09-01T12:31:52;10.73;;;9.50;;
10651;SDS011;5374;42.742;23.266;2022-09-01T12:34:41;10.63;;;9.53;;
10651;SDS011;5374;42.742;23.266;2022-09-01T12:37:32;13.70;;;9.13;;
10651;SDS011;5374;42.742;23.266;2022-09-01T12:40:24;12.33;;;9.90;;
10651;SDS011;5374;42.742;23.266;2022-09-01T12:43:31;17.57;;;10.07;;
10651;SDS011;5374;42.742;23.266;2022-09-01T12:46:39;12.37;;;9.03;;
10651;SDS011;5374;42.742;23.266;2022-09-01T12:49:34;11.67;;;8.97;;
10651;SDS011;5374;42.742;23.266;2022-09-01T12:52:27;11.23;;;9.33;;
10651;SDS011;5374;42.742;23.266;2022-09-01T12:55:15;12.00;;;8.90;;
10651;SDS011;5374;42.742;23.266;2022-09-01T12:58:05;11.23;;;9.07;;
10651;SDS011;5374;42.742;23.266;2022-09-01T13:00:55;10.77;;;8.90;;
10651;SDS011;5374;42.742;23.266;2022-09-01T13:06:59;12.97;;;10.70;;
10651;SDS011;5374;42.742;23.266;2022-09-01T13:09:47;13.93;;;10.93;;
10651;SDS011;5374;42.742;23.266;2022-09-01T13:12:37;14.10;;;9.77;;
10651;SDS011;5374;42.742;23.266;2022-09-01T13:15:27;10.93;;;9.70;;
10651;SDS011;5374;42.742;23.266;2022-09-01T13:18:15;10.13;;;9.13;;
10651;SDS011;5374;42.742;23.266;2022-09-01T13:21:04;15.00;;;10.03;;
10651;SDS011;5374;42.742;23.266;2022-09-01T13:23:52;12.60;;;10.07;;
10651;SDS011;5374;42.742;23.266;2022-09-01T13:26:39;12.67;;;10.07;;
10651;SDS011;5374;42.742;23.266;2022-09-01T13:29:31;15.67;;;14.00;;
10651;SDS011;5374;42.742;23.266;2022-09-01T13:32:20;11.17;;;10.07;;
10651;SDS011;5374;42.742;23.266;2022-09-01T13:35:08;10.87;;;9.50;;
10651;SDS011;5374;42.742;23.266;2022-09-01T13:37:55;11.77;;;10.63;;
10651;SDS011;5374;42.742;23.266;2022-09-01T13:40:43;13.20;;;10.37;;
10651;SDS011;5374;42.742;23.266;2022-09-01T13:43:32;12.23;;;10.93;;
10651;SDS011;5374;42.742;23.266;2022-09-01T13:46:20;15.80;;;11.33;;
10651;SDS011;5374;42.742;23.266;2022-09-01T13:49:08;12.57;;;10.80;;
10651;SDS011;5374;42.742;23.266;2022-09-01T13:51:56;14.63;;;11.10;;
10651;SDS011;5374;42.742;23.266;2022-09-01T13:54:43;10.43;;;8.93;;
10651;SDS011;5374;42.742;23.266;2022-09-01T13:57:30;12.10;;;11.00;;
10651;SDS011;5374;42.742;23.266;2022-09-01T14:00:19;11.13;;;10.03;;
10651;SDS011;5374;42.742;23.266;2022-09-01T14:03:09;12.67;;;10.13;;
10651;SDS011;5374;42.742;23.266;2022-09-01T14:05:59;15.47;;;10.57;;
10651;SDS011;5374;42.742;23.266;2022-09-01T14:08:47;11.07;;;9.90;;
10651;SDS011;5374;42.742;23.266;2022-09-01T14:11:34;21.50;;;10.60;;
10651;SDS011;5374;42.742;23.266;2022-09-01T14:14:22;11.80;;;10.70;;
10651;SDS011;5374;42.742;23.266;2022-09-01T14:17:09;11.00;;;9.90;;
10651;SDS011;5374;42.742;23.266;2022-09-01T14:19:56;10.57;;;9.60;;
10651;SDS011;5374;42.742;23.266;2022-09-01T14:22:45;15.40;;;9.97;;
10651;SDS011;5374;42.742;23.266;2022-09-01T14:25:33;12.30;;;10.13;;
10651;SDS011;5374;42.742;23.266;2022-09-01T14:28:22;11.90;;;9.97;;
10651;SDS011;5374;42.742;23.266;2022-09-01T14:31:10;14.77;;;10.53;;
10651;SDS011;5374;42.742;23.266;2022-09-01T14:33:58;14.53;;;10.50;;
10651;SDS011;5374;42.742;23.266;2022-09-01T14:36:45;13.93;;;9.43;;
10651;SDS011;5374;42.742;23.266;2022-09-01T14:39:35;11.20;;;9.97;;
10651;SDS011;5374;42.742;23.266;2022-09-01T14:42:23;15.37;;;9.00;;
10651;SDS011;5374;42.742;23.266;2022-09-01T14:45:13;12.43;;;9.30;;
10651;SDS011;5374;42.742;23.266;2022-09-01T14:48:03;10.50;;;8.10;;
10651;SDS011;5374;42.742;23.266;2022-09-01T14:50:50;13.37;;;7.83;;
10651;SDS011;5374;42.742;23.266;2022-09-01T14:53:38;12.00;;;7.43;;
10651;SDS011;5374;42.742;23.266;2022-09-01T14:56:27;10.43;;;8.47;;
10651;SDS011;5374;42.742;23.266;2022-09-01T14:59:14;12.37;;;9.33;;
10651;SDS011;5374;42.742;23.266;2022-09-01T15:02:03;11.10;;;9.43;;
10651;SDS011;5374;42.742;23.266;2022-09-01T15:04:51;12.20;;;11.00;;
10651;SDS011;5374;42.742;23.266;2022-09-01T15:07:38;12.53;;;10.60;;
10651;SDS011;5374;42.742;23.266;2022-09-01T15:10:26;11.90;;;10.70;;
10651;SDS011;5374;42.742;23.266;2022-09-01T15:13:15;11.23;;;9.77;;
10651;SDS011;5374;42.742;23.266;2022-09-01T15:16:02;12.60;;;10.53;;
10651;SDS011;5374;42.742;23.266;2022-09-01T15:18:51;13.50;;;9.80;;
10651;SDS011;5374;42.742;23.266;2022-09-01T15:21:40;13.27;;;8.00;;
10651;SDS011;5374;42.742;23.266;2022-09-01T15:24:29;10.70;;;7.57;;
10651;SDS011;5374;42.742;23.266;2022-09-01T15:27:16;11.87;;;7.37;;
10651;SDS011;5374;42.742;23.266;2022-09-01T15:30:05;9.60;;;8.23;;
10651;SDS011;5374;42.742;23.266;2022-09-01T15:33:01;15.20;;;8.13;;
10651;SDS011;5374;42.742;23.266;2022-09-01T15:35:51;11.40;;;8.23;;
10651;SDS011;5374;42.742;23.266;2022-09-01T15:38:38;12.93;;;8.20;;
10651;SDS011;5374;42.742;23.266;2022-09-01T15:41:25;10.03;;;8.27;;
10651;SDS011;5374;42.742;23.266;2022-09-01T15:44:14;10.43;;;8.30;;
10651;SDS011;5374;42.742;23.266;2022-09-01T15:47:02;13.70;;;8.70;;
10651;SDS011;5374;42.742;23.266;2022-09-01T15:49:49;9.23;;;8.07;;
10651;SDS011;5374;42.742;23.266;2022-09-01T15:52:40;16.73;;;8.57;;
10651;SDS011;5374;42.742;23.266;2022-09-01T15:55:39;11.03;;;8.13;;
10651;SDS011;5374;42.742;23.266;2022-09-01T15:58:28;11.17;;;7.93;;
10651;SDS011;5374;42.742;23.266;2022-09-01T16:01:15;9.60;;;8.37;;
10651;SDS011;5374;42.742;23.266;2022-09-01T16:04:05;12.50;;;8.17;;
10651;SDS011;5374;42.742;23.266;2022-09-01T16:06:55;9.37;;;8.30;;
10651;SDS011;5374;42.742;23.266;2022-09-01T16:09:43;10.37;;;7.80;;
10651;SDS011;5374;42.742;23.266;2022-09-01T16:12:30;12.13;;;8.27;;
10651;SDS011;5374;42.742;23.266;2022-09-01T16:15:18;10.13;;;7.90;;
10651;SDS011;5374;42.742;23.266;2022-09-01T16:18:11;11.00;;;8.30;;
10651;SDS011;5374;42.742;23.266;2022-09-01T16:21:17;16.10;;;9.87;;
10651;SDS011;5374;42.742;23.266;2022-09-01T16:24:10;12.90;;;7.60;;
10651;SDS011;5374;42.742;23.266;2022-09-01T16:26:59;8.90;;;7.90;;
10651;SDS011;5374;42.742;23.266;2022-09-01T16:29:47;9.37;;;8.10;;
10651;SDS011;5374;42.742;23.266;2022-09-01T16:32:37;11.80;;;7.97;;
10651;SDS011;5374;42.742;23.266;2022-09-01T16:35:29;9.37;;;7.53;;
10651;SDS011;5374;42.742;23.266;2022-09-01T16:38:33;9.30;;;7.57;;
10651;SDS011;5374;42.742;23.266;2022-09-01T16:41:31;9.83;;;7.70;;
10651;SDS011;5374;42.742;23.266;2022-09-01T16:44:32;8.90;;;8.00;;
10651;SDS011;5374;42.742;23.266;2022-09-01T16:47:31;8.83;;;7.73;;
10651;SDS011;5374;42.742;23.266;2022-09-01T16:50:29;11.70;;;7.80;;
10651;SDS011;5374;42.742;23.266;2022-09-01T16:53:33;10.30;;;8.23;;
10651;SDS011;5374;42.742;23.266;2022-09-01T16:56:34;8.80;;;7.90;;